Air Balloon Hill, United Kingdom
Current Conditions -  °F | °C
As of 6:20 AM on Monday 26 Jan 2015 (Local Time) from EGGD Reporting Station
Broken Clouds Broken Clouds  
Wind Chill: 40°   Ceiling: 400
Heat Index: 46°   Visibility: 6mi
Dew Point: 46°   Wind: 16mph
Humidity: 100%   Direction: 250°WSW
Pressure: 30.18"   Gusts: NA
Location:  51.46°N, 2.51°W
Report Text: EGGD 260620Z 25014KT 9999 BKN004 08/08 Q1022
Loading
Personal Weather Stations






























Interactive Weather Map New forecast layout! Learn more

10-Day Weather Forecast

Advertisements
Track Severe Weather on mobile